Time;durP1;ratioP1;P1;durP2;ratioP2;P2;SDS_P1;SDS_P2;PMS_P1;PMS_P2;Temp;Humidity;BMP_temperature;BMP_pressure;BME280_temperature;BME280_humidity;BME280_pressure;Samples;Min_cycle;Max_cycle;Signal;HPM_P1;HPM_P2
2024/01/29 00:02:08;;;;;;;8.40;4.57;;;;;;;8.28;59.95;96184.66;5111937;28;20200;-63
2024/01/29 00:04:35;;;;;;;6.70;4.93;;;;;;;8.28;59.99;96182.13;5112400;28;20182;-68
2024/01/29 00:07:02;;;;;;;5.67;5.00;;;;;;;8.28;60.24;96186.41;5112079;28;20196;-62
2024/01/29 00:09:28;;;;;;;9.27;5.40;;;;;;;8.22;59.78;96181.66;5112196;28;20189;-64
2024/01/29 00:11:57;;;;;;;8.17;5.07;;;;;;;8.29;59.71;96188.06;5111543;28;20192;-66
2024/01/29 00:14:24;;;;;;;7.23;4.87;;;;;;;8.29;60.00;96185.53;5111757;28;20177;-66
2024/01/29 00:16:50;;;;;;;5.97;4.53;;;;;;;8.28;60.15;96187.22;5111850;28;20633;-67
2024/01/29 00:19:17;;;;;;;7.87;5.40;;;;;;;8.29;60.01;96191.44;5112241;28;20247;-65
2024/01/29 00:21:44;;;;;;;7.80;4.87;;;;;;;8.25;59.84;96181.50;5112040;28;20584;-63
2024/01/29 00:24:11;;;;;;;6.60;4.87;;;;;;;8.29;60.11;96188.88;5111665;28;20185;-69
2024/01/29 00:26:38;;;;;;;7.67;4.37;;;;;;;8.29;60.13;96198.25;5111899;28;20250;-65
2024/01/29 00:29:07;;;;;;;6.73;5.27;;;;;;;8.28;60.03;96197.41;5111814;28;20192;-69
2024/01/29 00:31:33;;;;;;;6.97;5.27;;;;;;;8.28;59.91;96194.88;5111836;28;20181;-66
2024/01/29 00:34:00;;;;;;;7.07;5.10;;;;;;;8.25;60.07;96189.97;5111900;28;20687;-66
2024/01/29 00:36:28;;;;;;;7.50;4.83;;;;;;;8.27;60.02;96193.22;5111851;28;20580;-63
2024/01/29 00:38:54;;;;;;;8.43;4.33;;;;;;;8.27;60.09;96205.97;5111639;28;20213;-65
2024/01/29 00:41:21;;;;;;;5.80;4.40;;;;;;;8.21;60.26;96196.13;5111353;28;20185;-68
2024/01/29 00:43:48;;;;;;;5.10;4.60;;;;;;;8.27;60.03;96207.72;5111099;28;20201;-68
2024/01/29 00:46:16;;;;;;;4.90;4.40;;;;;;;8.27;60.20;96197.50;5111412;28;20181;-64
2024/01/29 00:48:43;;;;;;;5.20;4.17;;;;;;;8.27;60.14;96202.59;5111138;28;20653;-63
2024/01/29 00:51:10;;;;;;;4.90;4.40;;;;;;;8.05;60.21;96157.94;5111487;28;20189;-63
2024/01/29 00:53:37;;;;;;;6.60;4.93;;;;;;;8.27;60.21;96203.44;5110857;28;20195;-62
2024/01/29 00:56:04;;;;;;;5.90;4.30;;;;;;;8.27;60.28;96208.53;5110867;28;20177;-62
2024/01/29 00:58:31;;;;;;;7.60;4.93;;;;;;;8.29;60.19;96208.47;5110600;28;20209;-63
2024/01/29 01:00:58;;;;;;;7.73;4.87;;;;;;;8.28;60.15;96206.78;5111222;28;20189;-63
2024/01/29 01:03:26;;;;;;;5.60;4.47;;;;;;;8.29;60.20;96205.91;5111129;28;20200;-63
2024/01/29 01:05:53;;;;;;;8.37;5.00;;;;;;;8.25;60.22;96205.25;5111065;28;20181;-64
2024/01/29 01:08:20;;;;;;;4.77;4.37;;;;;;;8.28;60.08;96214.44;5111039;28;20193;-65
2024/01/29 01:10:46;;;;;;;7.33;4.60;;;;;;;8.28;60.31;96211.88;5110660;28;20193;-67
2024/01/29 01:13:13;;;;;;;6.13;4.50;;;;;;;8.23;60.11;96196.84;5110490;28;20188;-62
2024/01/29 01:15:40;;;;;;;6.83;4.50;;;;;;;8.25;59.92;96210.34;5111037;28;20238;-62
2024/01/29 01:18:07;;;;;;;7.40;4.83;;;;;;;8.25;60.25;96206.97;5111332;28;20282;-63
2024/01/29 01:20:35;;;;;;;5.10;4.60;;;;;;;8.19;60.42;96197.13;5110695;28;20177;-65
2024/01/29 01:23:02;;;;;;;6.63;4.80;;;;;;;8.23;60.31;96206.22;5111098;28;20181;-63
2024/01/29 01:25:28;;;;;;;8.10;4.80;;;;;;;8.23;60.46;96209.59;5110317;28;20197;-63
2024/01/29 01:27:56;;;;;;;7.43;4.13;;;;;;;8.10;60.31;96183.16;5109749;28;20193;-62
2024/01/29 01:30:23;;;;;;;5.27;4.20;;;;;;;7.97;60.21;96162.66;5111097;28;20765;-65
2024/01/29 01:32:49;;;;;;;6.30;4.20;;;;;;;8.16;60.49;96194.72;5110434;28;20220;-62
2024/01/29 01:35:16;;;;;;;4.70;4.10;;;;;;;8.23;60.33;96208.78;5110700;28;20193;-62
2024/01/29 01:37:44;;;;;;;5.97;4.47;;;;;;;8.19;60.46;96194.56;5110729;28;20209;-64
2024/01/29 01:40:12;;;;;;;5.27;4.70;;;;;;;7.96;60.32;96148.28;5110695;28;20188;-65
2024/01/29 01:42:40;;;;;;;4.63;4.13;;;;;;;8.21;60.31;96192.78;5110098;28;20197;-65
2024/01/29 01:45:08;;;;;;;6.43;4.50;;;;;;;8.20;60.55;96197.06;5110914;28;20189;-64
2024/01/29 01:47:35;;;;;;;7.90;4.70;;;;;;;8.19;60.43;96199.66;5109911;28;20196;-64
2024/01/29 01:50:03;;;;;;;5.53;4.30;;;;;;;7.55;60.51;96089.44;5110521;28;20572;-63
2024/01/29 01:52:30;;;;;;;7.30;4.87;;;;;;;8.17;60.51;96189.56;5110150;28;20193;-64
2024/01/29 01:54:58;;;;;;;7.47;4.27;;;;;;;8.06;60.52;96179.16;5110206;28;20200;-63
2024/01/29 01:57:25;;;;;;;6.17;4.17;;;;;;;8.13;60.66;96189.81;5109404;28;20216;-65
2024/01/29 01:59:52;;;;;;;5.63;4.40;;;;;;;8.18;60.61;96200.56;5110306;28;20279;-67
2024/01/29 02:02:19;;;;;;;6.00;4.20;;;;;;;8.17;60.66;96198.94;5110341;28;20185;-64
2024/01/29 02:04:46;;;;;;;4.93;4.27;;;;;;;8.10;60.52;96198.44;5110694;28;20242;-65
2024/01/29 02:07:13;;;;;;;5.63;4.27;;;;;;;8.10;60.56;96192.53;5111418;28;20250;-65
2024/01/29 02:09:40;;;;;;;4.60;4.07;;;;;;;8.18;60.71;96198.84;5111707;28;20276;-68
2024/01/29 02:12:09;;;;;;;10.30;4.93;;;;;;;8.18;60.49;96196.31;5110687;28;20189;-65
2024/01/29 02:14:36;;;;;;;5.80;3.97;;;;;;;8.18;60.57;96205.69;5110257;28;20180;-64
2024/01/29 02:17:03;;;;;;;5.40;4.17;;;;;;;8.17;60.57;96202.31;5109930;28;20185;-66
2024/01/29 02:19:30;;;;;;;5.33;4.83;;;;;;;8.00;60.70;96176.94;5110011;28;20245;-70
2024/01/29 02:21:57;;;;;;;6.90;4.60;;;;;;;7.88;60.56;96160.63;5110153;28;20188;-69
2024/01/29 02:24:25;;;;;;;5.30;4.27;;;;;;;8.16;60.54;96207.47;5109524;28;20181;-64
2024/01/29 02:26:52;;;;;;;6.93;4.67;;;;;;;8.14;60.54;96202.47;5089551;28;20181;-67
2024/01/29 02:29:19;;;;;;;6.17;4.30;;;;;;;8.16;60.59;96205.78;5095548;28;20242;-66
2024/01/29 02:31:45;;;;;;;5.07;4.17;;;;;;;8.18;60.73;96205.69;5109795;28;20177;-65
2024/01/29 02:34:12;;;;;;;7.17;4.40;;;;;;;8.18;60.69;96201.41;5109534;28;20193;-66
2024/01/29 02:36:39;;;;;;;5.93;4.80;;;;;;;8.19;60.63;96199.66;5109677;28;20200;-66
2024/01/29 02:39:07;;;;;;;5.13;3.97;;;;;;;7.60;60.51;96107.00;5111809;28;20638;-65
2024/01/29 02:41:36;;;;;;;5.73;4.00;;;;;;;8.18;60.64;96206.50;5113935;28;20193;-66
2024/01/29 02:44:03;;;;;;;4.97;4.40;;;;;;;8.20;60.41;96196.19;5113347;28;20192;-68
2024/01/29 02:46:29;;;;;;;5.23;4.60;;;;;;;8.20;60.49;96198.75;5113680;28;20669;-64
2024/01/29 02:48:56;;;;;;;5.07;4.20;;;;;;;8.20;60.58;96208.94;5113556;28;20204;-66
2024/01/29 02:51:23;;;;;;;5.20;4.50;;;;;;;8.20;60.67;96211.50;5113936;28;20184;-65
2024/01/29 02:53:50;;;;;;;5.23;4.40;;;;;;;7.98;60.63;96171.09;5113532;28;20193;-64
2024/01/29 02:56:16;;;;;;;4.83;4.30;;;;;;;8.21;60.70;96205.50;5113416;28;20221;-66
2024/01/29 02:58:45;;;;;;;5.67;4.70;;;;;;;8.20;60.59;96212.34;5113534;28;20221;-63
2024/01/29 03:01:11;;;;;;;6.47;4.93;;;;;;;7.99;60.44;96180.41;5113309;28;20192;-66
2024/01/29 03:03:38;;;;;;;6.27;4.43;;;;;;;8.17;60.65;96209.13;5113390;28;20250;-62
2024/01/29 03:06:05;;;;;;;5.50;4.47;;;;;;;8.16;60.52;96204.91;5113152;28;20189;-66
2024/01/29 03:08:32;;;;;;;4.47;4.00;;;;;;;8.15;60.52;96201.56;5113314;28;20623;-66
2024/01/29 03:10:58;;;;;;;5.23;4.27;;;;;;;8.20;60.53;96207.25;5113083;28;20795;-62
2024/01/29 03:13:25;;;;;;;6.20;4.53;;;;;;;8.21;60.55;96205.50;5112918;28;20608;-63
2024/01/29 03:15:53;;;;;;;6.07;4.70;;;;;;;8.21;60.58;96205.50;5113078;28;20189;-63
2024/01/29 03:18:20;;;;;;;7.13;4.77;;;;;;;8.21;60.55;96200.41;5113079;28;20297;-63
2024/01/29 03:20:47;;;;;;;5.97;4.87;;;;;;;8.21;60.56;96197.88;5112889;28;20208;-62
2024/01/29 03:23:14;;;;;;;6.13;4.50;;;;;;;8.11;60.63;96181.44;5113296;28;20185;-63
2024/01/29 03:25:41;;;;;;;6.77;4.70;;;;;;;8.20;60.36;96194.50;5112875;28;20189;-64
2024/01/29 03:28:07;;;;;;;5.00;4.50;;;;;;;8.22;60.63;96199.50;5113216;28;20193;-65
2024/01/29 03:30:34;;;;;;;6.43;4.67;;;;;;;8.17;60.41;96193.84;5113378;28;20185;-64
2024/01/29 03:33:02;;;;;;;5.53;4.60;;;;;;;8.21;60.57;96198.69;5113028;28;20335;-63
2024/01/29 03:35:29;;;;;;;8.47;4.67;;;;;;;8.22;60.54;96197.78;5113070;28;20288;-62
2024/01/29 03:37:56;;;;;;;6.33;4.83;;;;;;;8.21;60.60;96206.34;5112582;28;20627;-63
2024/01/29 03:40:23;;;;;;;6.87;4.77;;;;;;;8.22;60.91;96207.16;5112978;28;20201;-64
2024/01/29 03:42:49;;;;;;;6.20;4.60;;;;;;;8.23;60.48;96206.22;5112502;28;20254;-64
2024/01/29 03:45:16;;;;;;;5.03;4.50;;;;;;;8.22;60.47;96210.50;5112902;28;20246;-64
2024/01/29 03:47:43;;;;;;;7.07;4.30;;;;;;;8.15;60.28;96201.56;5112462;28;20189;-62
2024/01/29 03:50:11;;;;;;;5.20;4.60;;;;;;;8.23;60.50;96211.31;5111670;28;20196;-63
2024/01/29 03:52:38;;;;;;;5.63;4.67;;;;;;;8.22;60.55;96207.97;5112228;28;20718;-61
2024/01/29 03:55:06;;;;;;;13.63;5.47;;;;;;;8.17;60.43;96201.50;5113070;28;20529;-63
2024/01/29 03:57:32;;;;;;;8.57;4.83;;;;;;;8.21;60.57;96208.88;5112556;28;20221;-65
2024/01/29 03:59:59;;;;;;;7.17;4.93;;;;;;;7.58;60.39;96099.47;5111842;28;20221;-64
2024/01/29 04:02:26;;;;;;;8.50;4.60;;;;;;;8.20;60.46;96201.31;5112539;28;20200;-63
2024/01/29 04:04:53;;;;;;;5.73;4.63;;;;;;;8.20;60.56;96196.19;5112014;28;20198;-64
2024/01/29 04:07:22;;;;;;;5.80;4.77;;;;;;;8.16;60.45;96195.56;5112344;28;20207;-64
2024/01/29 04:09:49;;;;;;;5.07;4.27;;;;;;;7.84;60.47;96141.31;5111962;28;20263;-62
2024/01/29 04:12:17;;;;;;;7.20;5.17;;;;;;;8.19;60.58;96204.75;5112414;28;20185;-63
2024/01/29 04:14:43;;;;;;;5.57;4.73;;;;;;;8.19;60.63;96204.75;5111965;28;20189;-63
2024/01/29 04:17:12;;;;;;;6.20;5.23;;;;;;;8.18;60.51;96198.03;5112254;28;20197;-63
2024/01/29 04:19:39;;;;;;;6.53;5.07;;;;;;;8.17;60.60;96204.03;5112085;28;20204;-64
2024/01/29 04:22:06;;;;;;;7.03;5.17;;;;;;;8.17;60.50;96206.59;5111875;28;20271;-63
2024/01/29 04:24:34;;;;;;;6.80;5.37;;;;;;;8.14;60.52;96196.56;5111919;28;20204;-63
2024/01/29 04:27:01;;;;;;;7.10;5.43;;;;;;;8.17;60.61;96207.41;5112294;28;20592;-64
2024/01/29 04:29:28;;;;;;;5.73;4.93;;;;;;;8.13;60.66;96205.94;5111427;28;20680;-63
2024/01/29 04:31:55;;;;;;;7.53;5.73;;;;;;;8.16;60.49;96213.41;5111849;28;20185;-63
2024/01/29 04:34:22;;;;;;;5.60;5.03;;;;;;;8.17;60.66;96214.22;5111719;28;20537;-63
2024/01/29 04:36:48;;;;;;;6.97;5.47;;;;;;;8.17;60.59;96217.59;5112085;28;20184;-63
2024/01/29 04:39:15;;;;;;;9.03;5.67;;;;;;;8.17;60.61;96215.06;5111985;28;20289;-67
2024/01/29 04:41:43;;;;;;;6.77;5.73;;;;;;;8.15;60.60;96216.84;5111903;28;20200;-64
2024/01/29 04:44:11;;;;;;;7.03;5.73;;;;;;;8.18;60.60;96219.22;5112515;28;20661;-64
2024/01/29 04:46:37;;;;;;;7.87;6.00;;;;;;;8.20;60.49;96226.78;5115644;28;20673;-65
2024/01/29 04:49:04;;;;;;;8.47;5.87;;;;;;;8.20;60.42;96229.34;5112344;28;20280;-62
2024/01/29 04:51:31;;;;;;;9.37;6.90;;;;;;;8.21;60.57;96239.47;5111920;28;20181;-63
2024/01/29 04:53:58;;;;;;;7.10;5.67;;;;;;;8.13;60.61;96228.06;5112146;28;20197;-65
2024/01/29 04:56:25;;;;;;;9.10;5.97;;;;;;;8.14;60.57;96227.94;5111185;28;20621;-65
2024/01/29 04:58:54;;;;;;;7.63;5.97;;;;;;;8.19;60.77;96246.34;5110969;28;20272;-66
2024/01/29 05:01:21;;;;;;;8.97;6.30;;;;;;;8.18;60.79;96242.16;5110773;28;20615;-64
2024/01/29 05:03:48;;;;;;;6.97;5.63;;;;;;;8.11;60.83;96245.94;5111049;28;20185;-65
2024/01/29 05:06:20;;;;;;;8.40;5.67;;;;;;;8.16;60.95;96250.78;5110778;28;20185;-64
2024/01/29 05:08:47;;;;;;;6.43;4.93;;;;;;;8.15;60.79;96259.34;5111080;28;20626;-64
2024/01/29 05:11:14;;;;;;;8.40;5.97;;;;;;;8.14;60.87;96261.06;5110923;28;20193;-62
2024/01/29 05:13:41;;;;;;;7.70;6.10;;;;;;;8.02;60.87;96254.09;5110775;28;20221;-62
2024/01/29 05:16:11;;;;;;;6.63;6.03;;;;;;;8.10;61.00;96263.88;5111287;28;20193;-65
2024/01/29 05:18:37;;;;;;;6.77;5.67;;;;;;;8.08;61.01;96260.63;5110215;28;20215;-63
2024/01/29 05:21:05;;;;;;;6.83;5.77;;;;;;;8.05;61.15;96262.41;5110743;28;20184;-61
2024/01/29 05:23:31;;;;;;;6.80;5.77;;;;;;;8.03;61.16;96258.28;5110671;28;20631;-64
2024/01/29 05:25:58;;;;;;;8.40;6.43;;;;;;;8.02;60.93;96266.84;5110588;28;20189;-64
2024/01/29 05:28:25;;;;;;;7.90;6.00;;;;;;;8.00;61.19;96272.03;5110699;28;20181;-64
2024/01/29 05:30:52;;;;;;;7.33;5.87;;;;;;;7.95;61.45;96263.00;5109908;28;20657;-62
2024/01/29 05:33:21;;;;;;;7.73;5.90;;;;;;;7.96;61.66;96265.44;5109994;28;20184;-64
2024/01/29 05:35:47;;;;;;;8.70;6.10;;;;;;;7.79;61.50;96245.97;5110540;28;20189;-64
2024/01/29 05:38:14;;;;;;;8.97;6.00;;;;;;;7.94;61.28;96269.78;5110331;28;20606;-64
2024/01/29 05:40:41;;;;;;;7.40;5.83;;;;;;;7.91;61.46;96269.16;5110334;28;20247;-64
2024/01/29 05:43:08;;;;;;;8.23;6.13;;;;;;;7.88;61.49;96272.69;5110071;28;20619;-65
2024/01/29 05:45:35;;;;;;;7.87;5.80;;;;;;;7.86;61.42;96281.28;5109952;28;20254;-63
2024/01/29 05:48:04;;;;;;;7.53;6.40;;;;;;;7.83;61.64;96277.22;5109955;28;20185;-65
2024/01/29 05:50:32;;;;;;;7.07;6.00;;;;;;;7.82;61.61;96272.22;5110445;28;20193;-61
2024/01/29 05:52:59;;;;;;;7.87;5.40;;;;;;;7.81;61.65;96281.53;5110590;28;20181;-63
2024/01/29 05:55:25;;;;;;;6.63;4.47;;;;;;;7.95;94.42;96243.44;5110110;28;20177;-64
2024/01/29 05:57:52;;;;;;;6.87;4.73;;;;;;;8.88;100.00;96231.47;5109952;28;20232;-66
2024/01/29 06:00:20;;;;;;;5.77;4.50;;;;;;;10.16;100.00;96266.28;5109422;28;20281;-65
2024/01/29 06:02:49;;;;;;;5.83;4.53;;;;;;;11.02;100.00;96279.53;5109451;28;20192;-64
2024/01/29 06:05:16;;;;;;;8.63;4.57;;;;;;;11.28;98.91;96255.56;5110065;28;20699;-65
2024/01/29 06:07:44;;;;;;;5.93;4.40;;;;;;;11.49;94.20;96289.16;5110460;28;20185;-64
2024/01/29 06:10:14;;;;;;;7.23;4.70;;;;;;;11.28;86.25;96262.41;5109849;28;20610;-64
2024/01/29 06:12:40;;;;;;;5.50;4.43;;;;;;;11.22;79.84;96284.13;5109700;28;20189;-64
2024/01/29 06:15:08;;;;;;;6.70;5.00;;;;;;;11.03;76.36;96281.16;5109444;28;20208;-66
2024/01/29 06:17:35;;;;;;;11.90;5.00;;;;;;;10.89;74.73;96288.94;5110005;28;20196;-62
2024/01/29 06:20:03;;;;;;;6.77;4.87;;;;;;;10.72;73.56;96287.47;5109272;28;20216;-64
2024/01/29 06:22:29;;;;;;;8.00;5.00;;;;;;;10.58;72.88;96300.28;5109959;28;20638;-64
2024/01/29 06:24:57;;;;;;;6.20;4.63;;;;;;;9.93;72.40;96217.44;5109774;28;20196;-63
2024/01/29 06:27:24;;;;;;;5.37;4.60;;;;;;;10.31;72.08;96296.00;5109949;28;20196;-63
2024/01/29 06:29:51;;;;;;;6.07;5.40;;;;;;;10.05;71.59;96277.16;5109660;28;20189;-63
2024/01/29 06:32:18;;;;;;;12.80;4.93;;;;;;;10.09;71.31;96303.34;5109823;28;20193;-66
2024/01/29 06:34:45;;;;;;;5.20;4.70;;;;;;;9.88;71.07;96277.38;5110303;28;20199;-63
2024/01/29 06:37:13;;;;;;;6.33;5.13;;;;;;;9.91;70.73;96300.19;5109940;28;20268;-65
2024/01/29 06:39:41;;;;;;;6.13;4.57;;;;;;;9.82;70.46;96311.00;5110059;28;20224;-64
2024/01/29 06:42:09;;;;;;;8.17;5.23;;;;;;;9.67;70.01;96292.28;5110128;28;20229;-65
2024/01/29 06:44:36;;;;;;;8.03;5.17;;;;;;;9.68;69.53;96310.09;5109659;28;20658;-65
2024/01/29 06:47:02;;;;;;;6.07;5.27;;;;;;;9.63;69.24;96313.81;5109981;28;20197;-66
2024/01/29 06:49:31;;;;;;;6.23;5.20;;;;;;;9.32;68.86;96279.06;5109841;28;20189;-66
2024/01/29 06:51:58;;;;;;;7.97;4.77;;;;;;;9.52;68.49;96320.38;5109650;28;20216;-66
2024/01/29 06:54:25;;;;;;;6.17;4.63;;;;;;;9.47;68.27;96311.38;5109846;28;20254;-64
2024/01/29 06:56:53;;;;;;;5.90;5.00;;;;;;;9.44;67.92;96324.31;5109531;28;20740;-67
2024/01/29 06:59:23;;;;;;;7.83;4.87;;;;;;;9.40;67.91;96322.84;5109569;28;20216;-67
2024/01/29 07:01:50;;;;;;;8.43;5.13;;;;;;;9.35;67.48;96324.84;5109613;28;20189;-65
2024/01/29 07:04:17;;;;;;;11.13;4.60;;;;;;;9.05;67.37;96287.44;5109721;28;20195;-65
2024/01/29 07:06:44;;;;;;;9.57;5.23;;;;;;;9.27;67.04;96317.63;5109459;28;20181;-62
2024/01/29 07:09:11;;;;;;;8.07;4.97;;;;;;;9.24;66.79;96323.75;5109806;28;20662;-62
2024/01/29 07:11:38;;;;;;;5.77;5.13;;;;;;;9.15;66.78;96316.59;5109566;28;20197;-64
2024/01/29 07:14:04;;;;;;;7.43;5.37;;;;;;;9.19;66.54;96327.47;5109529;28;20189;-62
2024/01/29 07:16:32;;;;;;;6.37;4.43;;;;;;;9.14;66.38;96321.81;5109886;28;20289;-62
2024/01/29 07:18:59;;;;;;;5.07;4.57;;;;;;;9.12;66.19;96323.66;5109687;28;20189;-64
2024/01/29 07:21:26;;;;;;;6.07;5.13;;;;;;;9.09;65.86;96321.25;5109627;28;20220;-63
2024/01/29 07:23:53;;;;;;;5.63;4.80;;;;;;;9.08;65.93;96329.84;5109960;28;20192;-66
2024/01/29 07:26:20;;;;;;;6.13;5.53;;;;;;;9.07;65.88;96323.06;5112857;28;20200;-63
2024/01/29 07:28:47;;;;;;;7.20;5.47;;;;;;;9.07;65.64;96326.47;5113012;28;20181;-66
2024/01/29 07:31:14;;;;;;;7.57;4.90;;;;;;;9.03;65.42;96325.81;5113247;28;20189;-64
2024/01/29 07:33:42;;;;;;;5.47;4.90;;;;;;;9.12;65.42;96324.47;5113146;28;20184;-62
2024/01/29 07:36:09;;;;;;;6.20;5.00;;;;;;;9.11;65.26;96314.31;5113228;28;20299;-64
2024/01/29 07:38:36;;;;;;;8.13;5.20;;;;;;;8.80;64.94;96273.53;5112871;28;20196;-66
2024/01/29 07:41:03;;;;;;;5.53;4.80;;;;;;;9.15;64.81;96326.00;5112821;28;20712;-63
2024/01/29 07:43:30;;;;;;;5.77;4.60;;;;;;;9.19;64.63;96330.84;5112621;28;20189;-63
2024/01/29 07:45:57;;;;;;;8.17;5.00;;;;;;;9.23;64.48;96331.47;5112724;28;20196;-65
2024/01/29 07:48:24;;;;;;;7.63;5.47;;;;;;;9.25;64.25;96327.94;5112891;28;20192;-64
2024/01/29 07:50:52;;;;;;;7.20;4.80;;;;;;;9.30;64.14;96330.22;5112622;28;20193;-64
2024/01/29 07:53:18;;;;;;;5.70;4.60;;;;;;;9.22;63.79;96317.91;5112803;28;20254;-66
2024/01/29 07:55:45;;;;;;;8.30;5.43;;;;;;;9.40;63.75;96322.84;5112344;28;20255;-64
2024/01/29 07:58:12;;;;;;;8.57;5.20;;;;;;;9.48;63.40;96325.78;5112444;28;20225;-64
2024/01/29 08:00:39;;;;;;;7.73;5.80;;;;;;;9.49;63.32;96327.41;5112039;28;20217;-65
2024/01/29 08:03:07;;;;;;;5.80;4.90;;;;;;;9.57;63.13;96337.19;5112706;28;20273;-64
2024/01/29 08:05:35;;;;;;;7.50;5.50;;;;;;;9.60;63.00;96335.25;5112087;28;20971;-65
2024/01/29 08:08:03;;;;;;;7.83;5.43;;;;;;;9.66;62.81;96337.44;5112719;28;20233;-62
2024/01/29 08:10:30;;;;;;;6.63;5.40;;;;;;;9.73;62.64;96340.47;5112596;28;20185;-64
2024/01/29 08:12:57;;;;;;;8.27;5.97;;;;;;;9.77;62.53;96345.31;5112129;28;20188;-62
2024/01/29 08:15:24;;;;;;;7.20;5.03;;;;;;;9.85;62.34;96349.13;5111991;28;20585;-63
2024/01/29 08:17:50;;;;;;;10.33;6.20;;;;;;;9.80;62.36;96328.94;5112465;28;20181;-63
2024/01/29 08:20:17;;;;;;;7.23;5.17;;;;;;;9.97;62.07;96348.38;5112320;28;20227;-65
2024/01/29 08:22:44;;;;;;;9.27;5.33;;;;;;;10.04;61.93;96350.47;5112471;28;20553;-62
2024/01/29 08:25:12;;;;;;;7.30;5.73;;;;;;;10.13;61.65;96354.19;5112101;28;20193;-63
2024/01/29 08:27:39;;;;;;;7.60;5.80;;;;;;;9.98;61.49;96320.19;5111658;28;20661;-63
2024/01/29 08:30:07;;;;;;;6.73;5.40;;;;;;;10.25;61.34;96347.56;5112138;28;20276;-63
2024/01/29 08:32:34;;;;;;;6.33;5.70;;;;;;;10.40;61.21;96363.66;5111578;28;20204;-64
2024/01/29 08:35:01;;;;;;;6.50;5.80;;;;;;;10.47;60.90;96360.63;5112118;28;20193;-64
2024/01/29 08:37:28;;;;;;;10.17;5.77;;;;;;;10.45;60.60;96341.22;5111268;28;20181;-63
2024/01/29 08:39:55;;;;;;;9.13;6.17;;;;;;;10.63;60.59;96357.94;5111781;28;20266;-62
2024/01/29 08:42:23;;;;;;;8.97;6.80;;;;;;;10.75;60.32;96372.53;5111568;28;20192;-63
2024/01/29 08:44:50;;;;;;;8.27;5.90;;;;;;;10.84;60.01;96366.00;5112146;28;20181;-64
2024/01/29 08:47:17;;;;;;;9.10;5.77;;;;;;;10.86;59.88;96369.28;5111425;28;20193;-63
2024/01/29 08:49:43;;;;;;;9.37;5.93;;;;;;;10.98;59.68;96380.47;5111665;28;20201;-63
2024/01/29 08:52:10;;;;;;;7.37;6.23;;;;;;;10.75;59.58;96329.03;5111317;28;20199;-63
2024/01/29 08:54:38;;;;;;;10.83;6.50;;;;;;;11.09;59.58;96375.47;5111421;28;20236;-63
2024/01/29 08:57:05;;;;;;;7.23;5.87;;;;;;;10.87;59.29;96337.63;5111236;28;20766;-65
2024/01/29 08:59:33;;;;;;;10.30;6.47;;;;;;;11.14;59.07;96378.56;5111258;28;20242;-63
2024/01/29 09:02:00;;;;;;;7.20;5.97;;;;;;;11.18;59.05;96371.50;5111161;28;20581;-63
2024/01/29 09:04:27;;;;;;;8.40;6.33;;;;;;;11.21;59.09;96376.41;5111217;28;20234;-65
2024/01/29 09:06:54;;;;;;;10.60;6.03;;;;;;;11.21;58.87;96377.25;5111372;28;20666;-64
2024/01/29 09:09:20;;;;;;;6.10;5.50;;;;;;;10.98;58.67;96344.63;5111299;28;20192;-63
2024/01/29 09:11:47;;;;;;;8.60;5.73;;;;;;;11.21;58.50;96379.78;5112084;28;20223;-64
2024/01/29 09:14:14;;;;;;;7.37;5.97;;;;;;;11.22;58.52;96376.31;5110978;28;20192;-64
2024/01/29 09:16:42;;;;;;;9.00;6.17;;;;;;;11.09;58.34;96351.59;5110788;28;20192;-63
2024/01/29 09:19:09;;;;;;;8.80;5.90;;;;;;;11.13;58.34;96353.03;5110647;28;20685;-63
2024/01/29 09:21:36;;;;;;;8.23;6.00;;;;;;;11.27;58.33;96376.03;5111297;28;20221;-64
2024/01/29 09:24:03;;;;;;;8.50;6.10;;;;;;;11.29;58.18;96376.75;5110630;28;20193;-65
2024/01/29 09:26:30;;;;;;;7.50;6.63;;;;;;;11.33;58.08;96372.25;5110743;28;20196;-63
2024/01/29 09:28:58;;;;;;;7.20;5.73;;;;;;;11.36;58.14;96378.00;5110561;28;20582;-63
2024/01/29 09:31:24;;;;;;;7.17;5.83;;;;;;;11.39;57.77;96372.66;5110813;28;20220;-62
2024/01/29 09:33:53;;;;;;;6.93;6.23;;;;;;;11.39;57.72;96371.81;5111264;28;20192;-64
2024/01/29 09:36:20;;;;;;;6.80;5.70;;;;;;;11.43;57.56;96375.84;5110204;28;20195;-63
2024/01/29 09:38:47;;;;;;;6.77;5.40;;;;;;;11.40;57.35;96358.94;5110436;28;20181;-62
2024/01/29 09:41:14;;;;;;;7.83;6.17;;;;;;;11.50;57.14;96369.38;5110303;28;20285;-63
2024/01/29 09:43:41;;;;;;;7.93;6.17;;;;;;;11.52;56.85;96364.97;5110590;28;20568;-64
2024/01/29 09:46:08;;;;;;;6.63;5.37;;;;;;;11.55;56.79;96354.53;5110268;28;20193;-63
2024/01/29 09:48:37;;;;;;;7.03;5.13;;;;;;;11.59;56.62;96363.66;5109881;28;20227;-67
2024/01/29 09:51:06;;;;;;;8.10;5.20;;;;;;;11.62;56.41;96360.06;5111018;28;20181;-65
2024/01/29 09:53:36;;;;;;;6.07;4.97;;;;;;;11.65;56.27;96365.78;5110573;28;20197;-63
2024/01/29 09:56:04;;;;;;;7.90;4.70;;;;;;;11.67;55.91;96360.56;5110135;28;20185;-68
2024/01/29 09:58:32;;;;;;;6.47;4.80;;;;;;;11.67;55.83;96358.00;5110674;28;20244;-68
2024/01/29 10:01:02;;;;;;;6.87;4.60;;;;;;;11.56;55.52;96333.91;5110456;28;20231;-63
2024/01/29 10:03:31;;;;;;;10.30;5.47;;;;;;;11.57;55.21;96337.28;5112159;28;20212;-69
2024/01/29 10:05:58;;;;;;;5.30;4.60;;;;;;;11.71;55.22;96354.31;5110502;28;20177;-66
2024/01/29 10:08:29;;;;;;;6.07;4.60;;;;;;;11.49;54.87;96321.63;5110364;28;20795;-69
2024/01/29 10:10:56;;;;;;;5.07;4.43;;;;;;;11.72;54.64;96349.09;5109997;28;20185;-66
2024/01/29 10:13:23;;;;;;;6.13;4.40;;;;;;;11.72;54.32;96353.41;5110047;28;20199;-65
2024/01/29 10:15:51;;;;;;;5.00;3.50;;;;;;;11.52;54.43;96331.66;5109578;28;20189;-65
2024/01/29 10:18:19;;;;;;;6.63;3.80;;;;;;;11.65;54.10;96352.16;5110216;28;20193;-63
2024/01/29 10:20:45;;;;;;;5.40;4.10;;;;;;;11.56;53.86;96341.59;5110193;28;20201;-63
2024/01/29 10:23:12;;;;;;;4.40;4.00;;;;;;;11.62;53.93;96365.19;5109929;28;20185;-65
2024/01/29 10:25:41;;;;;;;4.40;3.73;;;;;;;11.40;53.76;96317.09;5110179;28;20223;-63
2024/01/29 10:28:11;;;;;;;5.20;3.70;;;;;;;11.60;53.55;96346.53;5109714;28;20647;-63
2024/01/29 10:30:39;;;;;;;5.43;4.03;;;;;;;11.60;53.31;96342.22;5110170;28;20274;-63
2024/01/29 10:33:06;;;;;;;4.07;3.67;;;;;;;11.60;53.23;96341.41;5109938;28;20192;-64
2024/01/29 10:35:32;;;;;;;3.97;3.57;;;;;;;11.64;53.17;96348.78;5109806;28;20192;-63
2024/01/29 10:38:04;;;;;;;4.67;4.00;;;;;;;11.57;52.96;96332.16;5109735;28;20181;-64
2024/01/29 10:40:32;;;;;;;6.00;3.80;;;;;;;11.67;52.83;96347.75;5109847;28;20227;-63
2024/01/29 10:43:01;;;;;;;5.90;3.93;;;;;;;11.68;52.82;96349.41;5109679;28;20197;-63
2024/01/29 10:45:28;;;;;;;4.07;3.60;;;;;;;11.45;52.50;96300.53;5105516;28;20186;-63
2024/01/29 10:48:08;;;;;;;4.40;3.40;;;;;;;11.70;52.26;96335.56;5089159;28;20197;-63
2024/01/29 10:50:35;;;;;;;5.13;4.17;;;;;;;11.67;52.02;96330.63;5098016;28;20199;-63
2024/01/29 10:53:04;;;;;;;4.13;3.17;;;;;;;11.71;52.02;96337.19;5107499;28;20181;-65
2024/01/29 10:55:31;;;;;;;3.37;2.90;;;;;;;11.73;51.93;96334.53;5107345;28;20196;-64
2024/01/29 10:58:02;;;;;;;3.43;3.17;;;;;;;11.64;51.70;96319.78;5107150;28;20969;-65
2024/01/29 11:00:29;;;;;;;3.60;3.30;;;;;;;11.77;51.63;96330.84;5110566;28;20197;-64
2024/01/29 11:02:58;;;;;;;6.03;3.30;;;;;;;11.76;51.56;96318.94;5110720;28;20250;-68
2024/01/29 11:05:27;;;;;;;3.03;2.73;;;;;;;11.71;51.51;96306.44;5113836;28;20189;-62
2024/01/29 11:07:57;;;;;;;3.30;3.00;;;;;;;11.87;51.31;96323.34;5113618;28;20253;-67
2024/01/29 11:10:24;;;;;;;4.50;3.03;;;;;;;11.90;51.23;96326.53;5113500;28;20415;-64
2024/01/29 11:12:54;;;;;;;3.13;2.87;;;;;;;11.92;51.17;96324.69;5112951;28;20208;-64
2024/01/29 11:15:22;;;;;;;3.13;2.83;;;;;;;11.94;50.84;96322.00;5113427;28;20185;-65
2024/01/29 11:17:49;;;;;;;3.03;2.73;;;;;;;11.71;50.93;96280.81;5112853;28;21039;-66
2024/01/29 11:20:17;;;;;;;2.60;2.40;;;;;;;11.92;50.86;96311.88;5113594;28;20188;-67
2024/01/29 11:22:51;;;;;;;2.97;2.77;;;;;;;11.94;50.64;96307.44;5112987;28;20790;-67
2024/01/29 11:25:19;;;;;;;3.13;2.83;;;;;;;11.91;50.78;96309.41;5113266;28;20224;-68
2024/01/29 11:27:47;;;;;;;3.30;2.90;;;;;;;11.93;50.83;96302.44;5112746;28;20646;-65
2024/01/29 11:30:18;;;;;;;4.13;2.83;;;;;;;11.93;50.67;96316.06;5113092;28;20696;-66
2024/01/29 11:32:47;;;;;;;3.33;3.03;;;;;;;11.63;50.52;96264.31;5112949;28;20276;-65
2024/01/29 11:35:15;;;;;;;3.50;3.10;;;;;;;11.89;50.64;96296.69;5112943;28;20204;-64
2024/01/29 11:37:43;;;;;;;4.90;2.63;;;;;;;11.92;50.42;96295.69;5113080;28;20184;-64
2024/01/29 11:40:32;;;;;;;3.10;2.90;;;;;;;11.99;50.14;96300.25;5113088;28;20221;-64